Time;durP1;ratioP1;P1;durP2;ratioP2;P2;SDS_P1;SDS_P2;PMS_P1;PMS_P2;Temp;Humidity;BMP_temperature;BMP_pressure;BME280_temperature;BME280_humidity;BME280_pressure;Samples;Min_cycle;Max_cycle;Signal;HPM_P1;HPM_P2
2022/07/17 00:00:07;;;;;;;7.90;1.92;;;;;;;21.21;53.82;102586.81;7392374;19;20014;-47
2022/07/17 00:02:39;;;;;;;9.35;2.20;;;;;;;21.08;54.58;102586.69;7395017;19;20081;-52
2022/07/17 00:05:09;;;;;;;7.28;1.50;;;;;;;20.97;55.34;102588.31;7391011;19;20019;-48
2022/07/17 00:07:38;;;;;;;5.53;1.80;;;;;;;20.89;55.48;102592.28;7392206;19;20017;-48
2022/07/17 00:10:08;;;;;;;5.65;1.75;;;;;;;20.90;55.60;102590.47;7391564;19;20061;-55
2022/07/17 00:12:37;;;;;;;7.72;1.60;;;;;;;20.96;55.53;102592.78;7390963;19;20029;-55
2022/07/17 00:15:07;;;;;;;5.82;1.52;;;;;;;20.98;55.32;102585.53;7389888;19;20018;-54
2022/07/17 00:17:39;;;;;;;5.47;2.25;;;;;;;20.92;56.17;102577.94;7391367;19;20022;-51
2022/07/17 00:20:09;;;;;;;7.30;1.83;;;;;;;20.94;55.62;102581.34;7390705;19;20687;-53
2022/07/17 00:22:38;;;;;;;6.53;1.50;;;;;;;20.84;55.50;102583.69;7391231;19;20014;-55
2022/07/17 00:25:09;;;;;;;5.25;1.83;;;;;;;20.75;56.04;102584.25;7392914;19;20030;-56
2022/07/17 00:27:38;;;;;;;4.70;1.88;;;;;;;20.76;56.33;102587.78;7391574;19;20014;-52
2022/07/17 00:30:09;;;;;;;8.15;1.45;;;;;;;20.71;56.58;102588.91;7390490;19;20033;-56
2022/07/17 00:32:41;;;;;;;4.95;1.70;;;;;;;20.64;56.44;102582.19;7391305;19;20015;-53
2022/07/17 00:35:11;;;;;;;6.65;2.13;;;;;;;20.65;56.91;102588.41;7392598;19;20320;-54
2022/07/17 00:37:42;;;;;;;6.03;1.55;;;;;;;20.61;56.83;102579.72;7391045;19;20586;-53
2022/07/17 00:40:14;;;;;;;5.80;1.70;;;;;;;20.52;57.25;102585.59;7387281;19;20030;-52
2022/07/17 00:42:43;;;;;;;7.22;1.85;;;;;;;20.48;57.73;102581.41;7391053;19;20481;-54
2022/07/17 00:45:14;;;;;;;8.45;1.67;;;;;;;20.53;57.27;102577.50;7389568;19;20492;-55
2022/07/17 00:47:57;;;;;;;5.22;2.05;;;;;;;20.52;57.24;102578.44;7391484;19;20011;-53
2022/07/17 00:50:28;;;;;;;4.30;1.65;;;;;;;20.56;57.22;102577.31;7388013;19;20010;-53
2022/07/17 00:52:57;;;;;;;5.32;1.48;;;;;;;20.55;57.17;102572.09;7391380;19;20022;-54
2022/07/17 00:55:26;;;;;;;8.38;2.08;;;;;;;20.48;57.31;102566.25;7389957;19;20007;-56
2022/07/17 00:57:58;;;;;;;9.60;2.00;;;;;;;20.51;57.60;102574.06;7392606;19;20011;-55
2022/07/17 01:00:27;;;;;;;8.15;1.98;;;;;;;20.52;57.14;102569.63;7386660;19;20033;-52
2022/07/17 01:02:59;;;;;;;8.35;1.85;;;;;;;20.49;57.31;102572.44;7390445;19;20029;-52
2022/07/17 01:05:28;;;;;;;4.47;1.63;;;;;;;20.50;56.99;102571.50;7389525;19;20034;-52
2022/07/17 01:07:56;;;;;;;3.97;1.73;;;;;;;20.52;57.23;102570.47;7392686;19;20025;-54
2022/07/17 01:10:25;;;;;;;5.28;1.30;;;;;;;20.52;57.43;102567.78;7386722;19;20466;-54
2022/07/17 01:12:54;;;;;;;5.65;1.35;;;;;;;20.55;57.48;102558.78;7392868;19;20014;-55
2022/07/17 01:15:23;;;;;;;6.50;1.58;;;;;;;20.45;57.10;102566.44;7388379;19;20014;-50
2022/07/17 01:17:52;;;;;;;6.30;1.88;;;;;;;20.43;57.63;102565.69;7389496;19;20030;-51
2022/07/17 01:20:24;;;;;;;4.25;1.60;;;;;;;20.30;57.72;102562.88;7385005;19;20026;-50
2022/07/17 01:22:55;;;;;;;4.72;1.48;;;;;;;20.24;58.43;102555.22;7391163;19;20007;-51
2022/07/17 01:25:25;;;;;;;5.80;1.80;;;;;;;20.28;58.17;102551.44;7396853;19;20025;-52
2022/07/17 01:27:54;;;;;;;2.90;1.30;;;;;;;20.27;57.64;102559.53;7397888;19;20030;-48
2022/07/17 01:30:23;;;;;;;5.40;1.65;;;;;;;20.29;57.87;102562.94;7392812;19;20038;-48
2022/07/17 01:32:52;;;;;;;5.30;1.63;;;;;;;20.27;58.11;102571.00;7396822;19;20010;-50
2022/07/17 01:35:21;;;;;;;6.03;1.58;;;;;;;20.27;57.98;102570.16;7401749;19;20014;-50
2022/07/17 01:37:50;;;;;;;6.15;1.88;;;;;;;20.32;58.24;102581.44;7404353;19;20017;-52
2022/07/17 01:40:22;;;;;;;8.02;1.73;;;;;;;20.33;57.70;102572.47;7404841;19;20475;-50
2022/07/17 01:42:52;;;;;;;4.60;1.40;;;;;;;20.28;57.99;102570.09;7404863;19;20576;-49
2022/07/17 01:45:21;;;;;;;5.63;1.52;;;;;;;20.20;58.14;102570.53;7402184;19;20014;-53
2022/07/17 01:47:50;;;;;;;6.65;2.20;;;;;;;20.27;58.71;102578.16;7398274;19;20023;-48
2022/07/17 01:50:19;;;;;;;5.97;1.40;;;;;;;20.26;58.60;102585.28;7396984;19;20389;-48
2022/07/17 01:52:48;;;;;;;7.10;1.88;;;;;;;20.26;58.30;102577.31;7394911;19;20026;-52
2022/07/17 01:55:18;;;;;;;4.57;2.05;;;;;;;20.17;58.42;102581.34;7396758;19;20010;-50
2022/07/17 01:57:50;;;;;;;6.57;1.55;;;;;;;20.13;58.22;102574.50;7395131;19;20022;-50
2022/07/17 02:00:22;;;;;;;3.63;1.60;;;;;;;20.13;58.64;102571.81;7391495;19;20367;-50
2022/07/17 02:02:51;;;;;;;5.70;1.83;;;;;;;19.98;58.91;102573.53;7395143;19;20022;-49
2022/07/17 02:05:20;;;;;;;5.28;1.77;;;;;;;20.00;59.12;102573.44;7394729;19;20015;-54
2022/07/17 02:07:49;;;;;;;4.38;1.45;;;;;;;20.10;59.13;102571.13;7397522;19;20014;-53
2022/07/17 02:10:18;;;;;;;4.15;1.50;;;;;;;20.10;59.17;102572.00;7395975;19;20021;-51
2022/07/17 02:12:50;;;;;;;5.72;2.22;;;;;;;20.09;59.28;102577.38;7397667;19;20010;-50
2022/07/17 02:15:19;;;;;;;3.72;1.40;;;;;;;20.04;58.87;102577.66;7395035;19;20022;-53
2022/07/17 02:17:48;;;;;;;6.85;2.00;;;;;;;20.04;59.11;102570.56;7396325;19;20026;-49
2022/07/17 02:20:18;;;;;;;3.92;1.58;;;;;;;20.08;58.81;102563.22;7391102;19;20032;-50
2022/07/17 02:22:47;;;;;;;4.97;1.67;;;;;;;20.01;59.14;102567.19;7399621;19;20010;-51
2022/07/17 02:25:17;;;;;;;7.82;1.88;;;;;;;20.04;59.70;102564.34;7395098;19;20477;-52
2022/07/17 02:27:46;;;;;;;6.25;1.73;;;;;;;20.07;59.53;102561.50;7398623;19;20015;-50
2022/07/17 02:30:20;;;;;;;4.35;1.70;;;;;;;20.04;59.90;102565.22;7392537;19;20015;-49
2022/07/17 02:32:49;;;;;;;4.10;1.80;;;;;;;20.05;59.17;102566.06;7399045;19;20018;-50
2022/07/17 02:35:17;;;;;;;3.97;1.52;;;;;;;20.06;59.37;102570.47;7392460;19;20038;-52
2022/07/17 02:37:46;;;;;;;5.25;1.77;;;;;;;20.03;59.15;102571.50;7395123;19;20464;-50
2022/07/17 02:40:15;;;;;;;4.65;1.65;;;;;;;19.99;59.71;102563.78;7391581;19;20025;-52
2022/07/17 02:42:44;;;;;;;7.70;2.40;;;;;;;19.94;59.94;102573.81;7396675;19;20402;-52
2022/07/17 02:45:24;;;;;;;6.93;1.80;;;;;;;19.90;59.97;102564.28;7392178;19;20098;-53
2022/07/17 02:47:53;;;;;;;5.85;1.67;;;;;;;19.92;60.23;102576.56;7396017;19;20018;-52
2022/07/17 02:50:23;;;;;;;5.00;1.50;;;;;;;19.90;60.74;102580.22;7393607;19;20022;-54
2022/07/17 02:52:52;;;;;;;5.03;1.60;;;;;;;19.97;60.30;102578.94;7395816;19;20399;-52
2022/07/17 02:55:21;;;;;;;7.20;2.00;;;;;;;20.01;60.49;102573.34;7392315;19;20026;-50
2022/07/17 02:57:50;;;;;;;4.75;2.00;;;;;;;20.00;60.05;102576.13;7396295;19;20511;-49
2022/07/17 03:00:22;;;;;;;7.35;1.92;;;;;;;19.94;60.13;102581.78;7395879;19;20119;-49
2022/07/17 03:02:51;;;;;;;5.85;2.03;;;;;;;19.92;60.54;102587.19;7398307;19;20011;-48
2022/07/17 03:05:20;;;;;;;5.05;1.98;;;;;;;19.93;60.48;102585.38;7392388;19;20014;-48
2022/07/17 03:07:50;;;;;;;2.80;1.52;;;;;;;19.93;60.48;102588.91;7395372;19;20026;-48
2022/07/17 03:10:18;;;;;;;5.65;2.08;;;;;;;19.88;60.27;102581.16;7388879;19;20018;-49
2022/07/17 03:12:47;;;;;;;5.20;1.70;;;;;;;19.84;60.38;102584.97;7393976;19;20014;-50
2022/07/17 03:15:16;;;;;;;4.75;1.77;;;;;;;19.86;60.03;102576.91;7395392;19;20034;-54
2022/07/17 03:17:48;;;;;;;6.40;1.92;;;;;;;19.82;60.26;102583.34;7393979;19;20010;-51
2022/07/17 03:20:17;;;;;;;7.93;1.90;;;;;;;19.81;60.66;102585.13;7393001;19;20353;-49
2022/07/17 03:22:46;;;;;;;7.45;1.67;;;;;;;19.83;60.21;102591.22;7395006;19;20017;-51
2022/07/17 03:25:15;;;;;;;7.47;1.80;;;;;;;19.84;59.83;102592.06;7392384;19;20014;-52
2022/07/17 03:27:43;;;;;;;6.82;1.90;;;;;;;19.84;60.11;102597.41;7393463;19;20014;-48
2022/07/17 03:30:12;;;;;;;5.63;2.00;;;;;;;19.77;60.64;102594.19;7392453;19;20026;-50
2022/07/17 03:32:41;;;;;;;5.50;1.80;;;;;;;19.80;60.74;102586.09;7393808;19;20021;-54
2022/07/17 03:35:13;;;;;;;7.25;2.03;;;;;;;19.78;61.08;102579.09;7393811;19;20014;-49
2022/07/17 03:37:43;;;;;;;6.75;1.48;;;;;;;19.76;60.85;102578.31;7393892;19;20011;-54
2022/07/17 03:40:14;;;;;;;7.03;2.30;;;;;;;19.77;61.06;102572.03;7392230;19;20010;-50
2022/07/17 03:42:42;;;;;;;47.85;4.43;;;;;;;19.75;60.93;102569.47;7393756;19;20014;-54
2022/07/17 03:45:12;;;;;;;37.63;3.63;;;;;;;19.71;60.91;102563.47;7392477;19;20077;-53
2022/07/17 03:47:41;;;;;;;4.82;1.75;;;;;;;19.65;61.22;102566.47;7395587;19;20018;-52
2022/07/17 03:50:12;;;;;;;4.07;1.90;;;;;;;19.62;61.21;102568.44;7389154;19;20021;-50
2022/07/17 03:52:41;;;;;;;6.20;2.08;;;;;;;19.57;61.16;102567.81;7392416;19;20010;-50
2022/07/17 03:55:11;;;;;;;6.25;1.88;;;;;;;19.52;61.49;102574.25;7390432;19;20021;-50
2022/07/17 03:57:40;;;;;;;5.68;1.75;;;;;;;19.50;62.41;102578.81;7396042;19;20016;-50
2022/07/17 04:00:11;;;;;;;5.55;1.65;;;;;;;19.53;62.62;102586.59;7389855;19;20325;-52
2022/07/17 04:02:42;;;;;;;6.93;2.00;;;;;;;19.57;62.88;102583.78;7394270;19;20056;-48
2022/07/17 04:05:14;;;;;;;4.28;1.67;;;;;;;19.43;61.94;102582.72;7392110;19;20010;-48
2022/07/17 04:07:44;;;;;;;6.22;1.88;;;;;;;19.38;62.75;102589.25;7393407;19;20010;-54
2022/07/17 04:10:15;;;;;;;4.90;1.90;;;;;;;19.44;62.91;102602.19;7389953;19;20021;-52
2022/07/17 04:12:44;;;;;;;3.95;1.65;;;;;;;19.50;62.89;102609.84;7392960;19;20015;-54
2022/07/17 04:15:48;;;;;;;6.70;2.20;;;;;;;19.56;63.11;102619.28;7390943;19;20014;-49
2022/07/17 04:18:02;;;;;;;6.57;1.90;;;;;;;19.61;62.61;102619.91;7393491;19;20031;-53
2022/07/17 04:20:34;;;;;;;5.75;2.00;;;;;;;19.60;62.40;102620.84;7388884;19;20014;-50
2022/07/17 04:23:04;;;;;;;8.23;2.25;;;;;;;19.57;62.19;102629.84;7393430;19;20011;-53
2022/07/17 04:25:33;;;;;;;8.55;2.08;;;;;;;19.60;61.81;102635.00;7391338;19;20018;-49
2022/07/17 04:28:02;;;;;;;7.00;2.30;;;;;;;19.67;61.53;102639.06;7394945;19;20018;-51
2022/07/17 04:30:31;;;;;;;12.05;2.00;;;;;;;19.67;61.27;102627.53;7389431;19;20492;-53
2022/07/17 04:33:00;;;;;;;6.65;1.85;;;;;;;19.71;61.25;102623.78;7392853;19;20006;-50
2022/07/17 04:35:29;;;;;;;4.85;2.00;;;;;;;19.66;61.13;102613.41;7391678;19;20030;-52
2022/07/17 04:38:01;;;;;;;5.90;2.15;;;;;;;19.63;61.34;102628.66;7394052;19;20014;-54
2022/07/17 04:40:30;;;;;;;5.00;2.13;;;;;;;19.61;62.04;102628.72;7388655;19;20014;-53
2022/07/17 04:42:59;;;;;;;6.63;1.83;;;;;;;19.63;61.87;102632.19;7392414;19;20018;-52
2022/07/17 04:45:28;;;;;;;5.82;1.88;;;;;;;19.69;62.36;102625.69;7392982;19;20012;-50
2022/07/17 04:47:57;;;;;;;6.57;1.85;;;;;;;19.71;61.58;102616.69;7391636;19;20014;-53
2022/07/17 04:50:27;;;;;;;7.15;2.10;;;;;;;19.78;61.36;102616.34;7390087;19;20011;-53
2022/07/17 04:52:56;;;;;;;12.35;2.55;;;;;;;19.84;60.67;102600.94;7392646;19;20027;-49
2022/07/17 04:55:28;;;;;;;5.60;2.33;;;;;;;19.85;60.12;102612.44;7392482;19;20021;-52
2022/07/17 04:57:57;;;;;;;5.13;2.00;;;;;;;19.88;60.12;102615.75;7392379;19;20368;-53
2022/07/17 05:00:26;;;;;;;5.65;2.00;;;;;;;19.83;60.53;102619.63;7397584;19;20041;-54
2022/07/17 05:02:55;;;;;;;6.50;2.03;;;;;;;19.87;60.00;102615.84;7401776;19;20054;-54
2022/07/17 05:05:24;;;;;;;7.35;2.00;;;;;;;19.91;60.38;102613.88;7397860;19;20021;-53
2022/07/17 05:07:53;;;;;;;6.22;2.08;;;;;;;19.91;59.84;102617.41;7398962;19;20640;-54
2022/07/17 05:10:22;;;;;;;11.13;2.28;;;;;;;19.95;59.72;102608.31;7395705;19;20022;-51
2022/07/17 05:12:53;;;;;;;5.60;1.98;;;;;;;19.94;60.24;102617.22;7398501;19;20360;-51
2022/07/17 05:15:22;;;;;;;6.82;1.90;;;;;;;19.94;60.08;102619.03;7400219;19;20359;-47
2022/07/17 05:17:51;;;;;;;5.78;2.10;;;;;;;19.97;59.73;102613.53;7398521;19;20078;-52
2022/07/17 05:20:20;;;;;;;7.95;2.08;;;;;;;19.98;59.60;102604.63;7394095;19;20019;-52
2022/07/17 05:22:49;;;;;;;7.68;2.00;;;;;;;20.04;60.73;102610.47;7399676;19;20440;-50
2022/07/17 05:25:18;;;;;;;4.05;1.83;;;;;;;20.01;60.11;102615.94;7398373;19;20021;-53
2022/07/17 05:27:47;;;;;;;5.40;1.80;;;;;;;20.10;60.29;102619.03;7399038;19;20015;-48
2022/07/17 05:30:18;;;;;;;9.52;2.45;;;;;;;20.14;60.31;102615.25;7396698;19;20017;-50
2022/07/17 05:32:47;;;;;;;9.00;1.90;;;;;;;20.09;60.03;102615.53;7396631;19;20022;-49
2022/07/17 05:35:16;;;;;;;6.13;2.33;;;;;;;19.96;60.01;102618.00;7397626;19;20011;-50
2022/07/17 05:37:45;;;;;;;8.15;2.70;;;;;;;19.95;60.71;102605.66;7399510;19;20010;-53
2022/07/17 05:40:14;;;;;;;7.80;2.75;;;;;;;19.84;61.04;102605.38;7397040;19;20037;-51
2022/07/17 05:42:43;;;;;;;6.60;2.00;;;;;;;19.84;61.29;102603.59;7399336;19;20813;-53
2022/07/17 05:45:12;;;;;;;7.68;2.10;;;;;;;19.95;61.93;102597.66;7399397;19;20006;-54
2022/07/17 05:47:43;;;;;;;4.45;1.85;;;;;;;20.03;61.70;102610.53;7395869;19;20026;-54
2022/07/17 05:50:12;;;;;;;11.65;2.33;;;;;;;20.12;61.90;102609.19;7395348;19;20619;-54
2022/07/17 05:52:41;;;;;;;7.57;2.10;;;;;;;20.16;62.25;102616.91;7395838;19;20021;-54
2022/07/17 05:55:10;;;;;;;11.80;2.47;;;;;;;20.15;61.93;102607.19;7397215;19;20015;-51
2022/07/17 05:57:39;;;;;;;8.30;2.45;;;;;;;20.13;61.40;102603.78;7395753;19;20396;-53
2022/07/17 06:00:10;;;;;;;6.38;2.28;;;;;;;20.14;61.84;102602.81;7369318;19;20026;-50
2022/07/17 06:02:44;;;;;;;6.30;2.20;;;;;;;20.27;61.95;102616.28;7399095;19;20021;-50
2022/07/17 06:05:13;;;;;;;8.57;2.47;;;;;;;20.29;61.36;102621.50;7399272;19;20011;-52
2022/07/17 06:07:42;;;;;;;10.80;2.50;;;;;;;20.37;61.54;102624.59;7395682;19;20006;-55
2022/07/17 06:10:12;;;;;;;6.57;2.55;;;;;;;20.30;60.58;102618.78;7394625;19;20014;-50
2022/07/17 06:12:41;;;;;;;6.35;2.58;;;;;;;20.40;60.51;102625.31;7395792;19;20333;-55
2022/07/17 06:15:11;;;;;;;5.30;2.10;;;;;;;20.46;60.38;102626.75;7395254;19;20014;-54
2022/07/17 06:17:40;;;;;;;5.72;2.17;;;;;;;20.52;59.31;102623.72;7395897;19;20024;-53
2022/07/17 06:20:12;;;;;;;8.55;2.30;;;;;;;20.60;59.33;102612.63;7395601;19;20104;-52
2022/07/17 06:22:41;;;;;;;;;;;;;;;20.62;58.71;102604.53;7396821;19;20122;-54
2022/07/17 06:25:11;;;;;;;6.15;2.35;;;;;;;20.68;59.14;102610.41;7399777;19;19923;-48
2022/07/17 06:27:41;;;;;;;7.88;2.58;;;;;;;20.79;58.91;102619.56;7394722;19;20483;-50
2022/07/17 06:30:12;;;;;;;6.35;2.33;;;;;;;20.74;59.29;102626.00;7393798;19;20475;-54
2022/07/17 06:32:41;;;;;;;7.75;3.03;;;;;;;20.72;59.47;102619.09;7395326;19;20015;-51
2022/07/17 06:35:13;;;;;;;8.30;2.70;;;;;;;20.76;59.22;102625.06;7396137;19;20034;-55
2022/07/17 06:37:42;;;;;;;6.30;2.47;;;;;;;20.80;58.65;102632.78;7396886;19;20014;-51
2022/07/17 06:40:11;;;;;;;5.75;2.45;;;;;;;20.90;58.48;102633.09;7393876;19;20022;-50
2022/07/17 06:42:40;;;;;;;9.60;2.53;;;;;;;20.96;57.51;102638.09;7396085;19;20491;-54
2022/07/17 06:45:10;;;;;;;7.57;2.80;;;;;;;21.08;57.71;102634.69;7396708;19;20312;-51
2022/07/17 06:47:40;;;;;;;7.68;2.72;;;;;;;21.16;57.86;102644.03;7394322;19;20018;-53
2022/07/17 06:50:12;;;;;;;9.35;2.70;;;;;;;21.24;58.29;102647.94;7394654;19;20503;-52
2022/07/17 06:52:41;;;;;;;6.38;2.53;;;;;;;21.25;58.23;102643.47;7397274;19;20491;-51
2022/07/17 06:55:11;;;;;;;5.88;2.70;;;;;;;21.30;57.33;102649.38;7395395;19;20007;-51
2022/07/17 06:57:40;;;;;;;7.43;2.03;;;;;;;21.25;55.89;102647.00;7398106;19;20021;-51
2022/07/17 07:00:11;;;;;;;8.15;2.35;;;;;;;21.27;56.07;102654.91;7393969;19;20019;-55
2022/07/17 07:02:40;;;;;;;9.57;2.75;;;;;;;21.36;57.07;102659.69;7396737;19;20010;-48
2022/07/17 07:05:10;;;;;;;4.55;2.13;;;;;;;21.39;56.45;102650.63;7396948;19;20022;-52
2022/07/17 07:07:41;;;;;;;8.27;2.55;;;;;;;21.53;56.49;102645.31;7394054;19;20018;-55
2022/07/17 07:10:11;;;;;;;6.25;1.90;;;;;;;21.64;56.16;102636.66;7393515;19;20011;-55
2022/07/17 07:12:40;;;;;;;7.38;1.77;;;;;;;21.74;56.31;102644.97;7394936;19;20451;-52
2022/07/17 07:15:11;;;;;;;11.43;2.13;;;;;;;21.75;56.59;102649.34;7397081;19;20360;-51
2022/07/17 07:17:39;;;;;;;6.25;1.92;;;;;;;21.90;56.19;102659.03;7398823;19;20018;-50
2022/07/17 07:20:10;;;;;;;4.63;2.30;;;;;;;21.92;54.67;102666.94;7400086;19;20460;-49
2022/07/17 07:22:41;;;;;;;5.90;2.10;;;;;;;21.93;55.37;102666.84;7400438;19;20007;-50
2022/07/17 07:25:11;;;;;;;6.38;1.60;;;;;;;21.87;53.35;102674.41;7409932;19;20018;-55
2022/07/17 07:27:40;;;;;;;5.53;1.60;;;;;;;21.87;53.94;102669.91;7403341;19;20006;-54
2022/07/17 07:30:12;;;;;;;6.20;1.73;;;;;;;22.06;53.97;102668.75;7398892;19;20007;-49
2022/07/17 07:32:41;;;;;;;10.32;2.22;;;;;;;22.22;52.98;102658.81;7397419;19;20455;-49
2022/07/17 07:35:11;;;;;;;8.85;2.20;;;;;;;21.84;52.91;102670.09;7396118;19;20483;-50
2022/07/17 07:37:43;;;;;;;6.93;1.65;;;;;;;21.97;53.68;102666.69;7398264;19;20506;-51
2022/07/17 07:40:13;;;;;;;4.28;1.80;;;;;;;22.25;53.07;102671.09;7393960;19;20025;-53
2022/07/17 07:42:42;;;;;;;7.25;2.08;;;;;;;22.34;51.36;102662.53;7393651;19;20023;-51
2022/07/17 07:45:11;;;;;;;6.65;1.73;;;;;;;22.40;51.56;102663.94;7393964;19;20006;-50
2022/07/17 07:47:44;;;;;;;6.80;1.60;;;;;;;22.32;51.16;102660.88;7394737;19;20015;-55
2022/07/17 07:50:14;;;;;;;7.75;1.92;;;;;;;22.32;50.98;102659.03;7393408;19;20078;-50
2022/07/17 07:52:46;;;;;;;7.45;1.95;;;;;;;22.36;51.81;102665.09;7392967;19;20010;-50
2022/07/17 07:55:16;;;;;;;5.45;1.90;;;;;;;22.37;52.37;102654.31;7393182;19;20022;-51
2022/07/17 07:57:45;;;;;;;9.57;1.83;;;;;;;22.44;51.50;102655.63;7391760;19;20029;-49
2022/07/17 08:00:15;;;;;;;8.65;1.92;;;;;;;22.53;51.80;102655.97;7392010;19;20099;-54
2022/07/17 08:02:44;;;;;;;4.75;1.65;;;;;;;22.58;50.95;102657.38;7392859;19;20455;-44
2022/07/17 08:05:12;;;;;;;12.60;2.38;;;;;;;22.78;51.48;102652.50;7393560;19;20026;-51
2022/07/17 08:07:41;;;;;;;5.68;1.48;;;;;;;22.94;50.59;102665.72;7394157;19;20010;-44
2022/07/17 08:10:13;;;;;;;6.75;1.45;;;;;;;22.96;49.29;102661.09;7392586;19;20010;-47
2022/07/17 08:12:42;;;;;;;5.93;1.70;;;;;;;22.22;49.78;102657.94;7394842;19;20335;-48
2022/07/17 08:15:12;;;;;;;16.17;2.55;;;;;;;22.51;50.95;102669.44;7392159;19;20010;-50
2022/07/17 08:17:41;;;;;;;6.38;1.45;;;;;;;22.89;50.10;102666.00;7390986;19;20010;-51
2022/07/17 08:20:11;;;;;;;9.27;1.73;;;;;;;23.04;48.85;102674.81;7392434;19;20038;-48
2022/07/17 08:22:40;;;;;;;6.25;1.40;;;;;;;23.22;48.09;102669.19;7392952;19;20021;-50
2022/07/17 08:25:09;;;;;;;5.63;1.58;;;;;;;23.29;47.42;102673.16;7392301;19;20018;-51
2022/07/17 08:27:42;;;;;;;6.32;1.58;;;;;;;23.23;47.79;102673.59;7390861;19;20010;-44
2022/07/17 08:30:14;;;;;;;4.97;1.65;;;;;;;23.18;48.39;102662.34;7391707;19;20029;-48
2022/07/17 08:32:43;;;;;;;9.00;2.20;;;;;;;22.96;48.30;102658.44;7392773;19;20083;-44
2022/07/17 08:35:13;;;;;;;27.85;2.72;;;;;;;23.08;49.14;102670.97;7399404;19;20018;-48
2022/07/17 08:37:46;;;;;;;4.13;1.23;;;;;;;23.32;47.88;102660.41;7397301;19;20023;-47
2022/07/17 08:40:23;;;;;;;5.95;1.60;;;;;;;23.56;47.21;102658.84;7399448;19;20324;-49
2022/07/17 08:42:55;;;;;;;4.78;1.27;;;;;;;23.64;45.85;102653.78;7399247;19;20020;-46
2022/07/17 08:45:25;;;;;;;7.05;1.85;;;;;;;23.66;45.83;102654.53;7399767;19;20355;-49
2022/07/17 08:47:55;;;;;;;6.07;1.50;;;;;;;23.67;46.74;102661.59;7399937;19;20018;-49
2022/07/17 08:50:26;;;;;;;5.43;1.38;;;;;;;23.65;45.64;102658.16;7399788;19;20018;-46
2022/07/17 08:52:55;;;;;;;6.63;1.27;;;;;;;23.01;47.01;102650.97;7395873;19;20011;-44
2022/07/17 08:55:24;;;;;;;6.93;1.45;;;;;;;23.04;48.07;102649.88;7399759;19;20447;-49
2022/07/17 08:57:56;;;;;;;9.35;1.70;;;;;;;23.07;48.23;102649.69;7401367;19;20015;-44
2022/07/17 09:00:26;;;;;;;4.93;1.50;;;;;;;22.87;47.30;102657.25;7399104;19;20014;-44
2022/07/17 09:02:57;;;;;;;4.65;1.38;;;;;;;22.74;48.16;102643.00;7399203;19;20026;-44
2022/07/17 09:05:27;;;;;;;9.30;1.73;;;;;;;22.39;48.52;102647.03;7399867;19;20007;-43
2022/07/17 09:07:56;;;;;;;7.93;2.17;;;;;;;23.03;48.89;102653.53;7400596;19;20104;-45
2022/07/17 09:10:36;;;;;;;4.93;1.40;;;;;;;23.52;46.78;102651.97;7398772;19;20019;-50
2022/07/17 09:13:19;;;;;;;5.90;1.60;;;;;;;23.27;46.54;102653.72;7394651;19;20018;-46
2022/07/17 09:15:49;;;;;;;3.83;1.30;;;;;;;23.21;46.92;102649.63;7398987;19;20033;-52
2022/07/17 09:18:19;;;;;;;5.80;1.38;;;;;;;23.49;46.49;102647.69;7396227;19;20014;-51
2022/07/17 09:20:51;;;;;;;4.72;1.50;;;;;;;23.50;45.60;102652.94;7398836;19;20014;-48
2022/07/17 09:23:21;;;;;;;5.50;1.52;;;;;;;23.81;46.01;102655.25;7392861;19;20022;-44
2022/07/17 09:25:52;;;;;;;11.48;1.50;;;;;;;24.12;44.62;102658.44;7396943;19;20035;-46
2022/07/17 09:28:25;;;;;;;9.68;1.80;;;;;;;24.17;44.71;102651.78;7398072;19;20029;-45
2022/07/17 09:30:55;;;;;;;;;;;;;;;24.23;42.64;102653.16;7401621;19;20015;-47
2022/07/17 09:33:26;;;;;;;4.20;1.60;;;;;;;24.10;43.42;102653.19;7393946;19;19935;-44
2022/07/17 09:35:57;;;;;;;8.40;2.00;;;;;;;24.24;44.13;102651.31;7396791;19;20015;-47
2022/07/17 09:38:35;;;;;;;4.25;1.30;;;;;;;24.46;42.83;102648.75;7396629;19;20017;-44
2022/07/17 09:41:12;;;;;;;5.03;1.65;;;;;;;24.66;42.93;102651.81;7397750;19;20380;-47
2022/07/17 09:43:47;;;;;;;7.05;1.52;;;;;;;24.88;42.70;102645.66;7393022;19;20025;-46
2022/07/17 09:46:18;;;;;;;5.63;1.33;;;;;;;24.98;41.77;102641.28;7394031;19;20323;-44
2022/07/17 09:48:52;;;;;;;5.57;1.52;;;;;;;25.03;41.74;102643.59;7397130;19;20027;-51
2022/07/17 09:51:23;;;;;;;5.90;1.65;;;;;;;25.15;42.28;102639.97;7399160;19;20554;-44
2022/07/17 09:53:54;;;;;;;7.13;1.60;;;;;;;25.26;41.24;102639.16;7397019;19;20014;-49
2022/07/17 09:56:25;;;;;;;4.93;1.58;;;;;;;25.24;40.16;102645.63;7397780;19;20013;-48
2022/07/17 09:59:01;;;;;;;4.13;1.42;;;;;;;25.09;40.48;102651.19;7397509;19;20134;-47
2022/07/17 10:01:30;;;;;;;3.58;1.50;;;;;;;24.76;40.73;102636.72;7395963;19;20014;-48
2022/07/17 10:03:59;;;;;;;7.88;1.48;;;;;;;24.80;42.25;102638.22;7394690;19;20130;-44
2022/07/17 10:06:29;;;;;;;9.43;2.10;;;;;;;25.04;41.33;102635.47;7397396;19;20024;-47
2022/07/17 10:08:58;;;;;;;6.93;1.70;;;;;;;25.32;41.16;102638.69;7393746;19;20026;-47
2022/07/17 10:11:30;;;;;;;4.78;1.60;;;;;;;25.30;40.53;102640.59;7394344;19;20375;-45
2022/07/17 10:14:05;;;;;;;6.03;1.73;;;;;;;24.74;41.22;102644.00;7392985;19;20022;-46
2022/07/17 10:16:36;;;;;;;3.03;1.27;;;;;;;24.38;41.21;102636.91;7397427;19;20025;-49
2022/07/17 10:19:05;;;;;;;4.35;1.10;;;;;;;24.80;41.00;102642.69;7396252;19;20074;-45
2022/07/17 10:21:34;;;;;;;6.13;1.50;;;;;;;25.14;41.33;102640.09;7394112;19;20013;-44
2022/07/17 10:24:12;;;;;;;3.70;1.50;;;;;;;25.34;40.12;102636.75;7392510;19;20023;-46
2022/07/17 10:26:43;;;;;;;5.47;1.90;;;;;;;25.55;40.37;102630.66;7396479;19;20074;-45
2022/07/17 10:29:33;;;;;;;3.92;1.50;;;;;;;25.72;39.58;102650.78;7395243;19;20022;-45
2022/07/17 10:32:05;;;;;;;8.48;1.48;;;;;;;25.67;39.10;102656.50;7394239;19;20031;-45
2022/07/17 10:34:45;;;;;;;9.68;1.70;;;;;;;25.49;39.41;102639.19;7395166;19;20324;-45
2022/07/17 10:37:22;;;;;;;5.28;1.50;;;;;;;25.76;40.13;102646.88;7392997;19;20669;-48
2022/07/17 10:40:04;;;;;;;5.30;1.67;;;;;;;25.52;39.18;102644.34;7394282;19;20010;-52
2022/07/17 10:42:44;;;;;;;6.53;1.52;;;;;;;25.33;40.81;102643.09;7395712;19;20017;-45
2022/07/17 10:45:18;;;;;;;15.30;2.63;;;;;;;25.76;40.27;102637.97;7397158;19;20011;-46
2022/07/17 10:47:49;;;;;;;4.68;1.70;;;;;;;25.73;39.88;102637.25;7398852;19;20315;-49
2022/07/17 10:50:20;;;;;;;7.97;1.85;;;;;;;25.99;39.91;102638.78;7398347;19;20082;-45
2022/07/17 10:52:59;;;;;;;3.65;1.38;;;;;;;25.98;38.91;102634.41;7397107;19;20018;-49
2022/07/17 10:55:29;;;;;;;6.30;1.60;;;;;;;25.97;40.29;102624.63;7398056;19;20128;-46
2022/07/17 10:57:59;;;;;;;4.60;1.58;;;;;;;26.28;39.36;102628.38;7391441;19;20419;-48
2022/07/17 11:00:30;;;;;;;6.22;2.33;;;;;;;25.95;39.47;102635.50;7395623;19;20007;-48
2022/07/17 11:02:59;;;;;;;11.05;1.73;;;;;;;26.35;39.49;102640.31;7395118;19;20010;-45
2022/07/17 11:05:28;;;;;;;8.70;1.80;;;;;;;26.33;38.97;102641.41;7397130;19;20015;-47
2022/07/17 11:08:01;;;;;;;8.95;2.13;;;;;;;25.89;38.77;102646.72;7393077;19;20364;-46
2022/07/17 11:10:31;;;;;;;4.43;1.75;;;;;;;25.89;38.81;102652.97;7395592;19;20045;-47
2022/07/17 11:13:10;;;;;;;6.28;1.85;;;;;;;25.76;40.43;102648.72;7392944;19;20020;-47
2022/07/17 11:15:50;;;;;;;10.65;2.13;;;;;;;25.96;40.27;102647.09;7393451;19;20002;-43
2022/07/17 11:18:22;;;;;;;7.50;1.77;;;;;;;26.47;39.58;102635.75;7388716;19;20014;-44
2022/07/17 11:20:55;;;;;;;6.43;1.73;;;;;;;26.68;37.93;102637.59;7396533;19;20518;-44
2022/07/17 11:23:26;;;;;;;6.85;1.60;;;;;;;27.07;38.36;102636.06;7392449;19;20026;-48
2022/07/17 11:25:57;;;;;;;5.82;1.40;;;;;;;27.52;37.50;102632.19;7396254;19;20011;-45
2022/07/17 11:28:31;;;;;;;5.32;1.65;;;;;;;26.95;37.45;102623.66;7391934;19;20018;-47
2022/07/17 11:31:05;;;;;;;7.30;1.92;;;;;;;27.49;37.04;102624.41;7395535;19;20014;-44
2022/07/17 11:33:34;;;;;;;6.18;1.60;;;;;;;28.00;35.91;102625.31;7393636;19;20488;-48
2022/07/17 11:36:03;;;;;;;3.65;1.33;;;;;;;28.45;35.11;102630.13;7395775;19;20015;-44
2022/07/17 11:38:32;;;;;;;10.95;2.50;;;;;;;28.76;35.67;102627.31;7389603;19;20110;-45